sensor_id;sensor_type;location;lat;lon;timestamp;P1;durP1;ratioP1;P2;durP2;ratioP2
51838;SDS011;37886;53.174;6.368;2023-01-06T00:00:29;47.60;;;14.23;;
51838;SDS011;37886;53.174;6.368;2023-01-06T00:02:55;54.95;;;14.48;;
51838;SDS011;37886;53.174;6.368;2023-01-06T00:05:21;61.95;;;15.68;;
51838;SDS011;37886;53.174;6.368;2023-01-06T00:07:50;47.00;;;13.70;;
51838;SDS011;37886;53.174;6.368;2023-01-06T00:10:16;59.00;;;14.57;;
51838;SDS011;37886;53.174;6.368;2023-01-06T00:12:43;62.50;;;14.38;;
51838;SDS011;37886;53.174;6.368;2023-01-06T00:15:10;48.90;;;13.63;;
51838;SDS011;37886;53.174;6.368;2023-01-06T00:17:36;58.20;;;13.60;;
51838;SDS011;37886;53.174;6.368;2023-01-06T00:20:02;42.63;;;12.35;;
51838;SDS011;37886;53.174;6.368;2023-01-06T00:22:28;51.92;;;12.70;;
51838;SDS011;37886;53.174;6.368;2023-01-06T00:24:54;58.33;;;12.85;;
51838;SDS011;37886;53.174;6.368;2023-01-06T00:27:20;42.55;;;11.95;;
51838;SDS011;37886;53.174;6.368;2023-01-06T00:29:45;47.10;;;11.82;;
51838;SDS011;37886;53.174;6.368;2023-01-06T00:32:13;44.67;;;10.77;;
51838;SDS011;37886;53.174;6.368;2023-01-06T00:34:39;51.20;;;10.05;;
51838;SDS011;37886;53.174;6.368;2023-01-06T00:37:05;45.78;;;9.85;;
51838;SDS011;37886;53.174;6.368;2023-01-06T00:39:30;37.25;;;9.07;;
51838;SDS011;37886;53.174;6.368;2023-01-06T00:41:56;30.60;;;7.85;;
51838;SDS011;37886;53.174;6.368;2023-01-06T00:44:31;36.70;;;8.63;;
51838;SDS011;37886;53.174;6.368;2023-01-06T00:47:00;28.80;;;7.43;;
51838;SDS011;37886;53.174;6.368;2023-01-06T00:49:26;25.80;;;7.05;;
51838;SDS011;37886;53.174;6.368;2023-01-06T00:51:52;35.17;;;8.45;;
51838;SDS011;37886;53.174;6.368;2023-01-06T00:54:19;27.00;;;8.30;;
51838;SDS011;37886;53.174;6.368;2023-01-06T00:56:45;26.25;;;8.38;;
51838;SDS011;37886;53.174;6.368;2023-01-06T00:59:13;25.52;;;7.88;;
51838;SDS011;37886;53.174;6.368;2023-01-06T01:01:41;29.33;;;8.18;;
51838;SDS011;37886;53.174;6.368;2023-01-06T01:04:08;24.00;;;6.60;;
51838;SDS011;37886;53.174;6.368;2023-01-06T01:06:34;24.55;;;6.72;;
51838;SDS011;37886;53.174;6.368;2023-01-06T01:09:01;20.58;;;6.72;;
51838;SDS011;37886;53.174;6.368;2023-01-06T01:11:28;22.20;;;5.93;;
51838;SDS011;37886;53.174;6.368;2023-01-06T01:14:13;21.15;;;5.57;;
51838;SDS011;37886;53.174;6.368;2023-01-06T01:16:40;24.70;;;6.30;;
51838;SDS011;37886;53.174;6.368;2023-01-06T01:19:06;19.55;;;5.22;;
51838;SDS011;37886;53.174;6.368;2023-01-06T01:21:32;22.85;;;5.70;;
51838;SDS011;37886;53.174;6.368;2023-01-06T01:23:58;24.20;;;5.78;;
51838;SDS011;37886;53.174;6.368;2023-01-06T01:26:24;21.80;;;5.05;;
51838;SDS011;37886;53.174;6.368;2023-01-06T01:28:50;21.88;;;5.18;;
51838;SDS011;37886;53.174;6.368;2023-01-06T01:31:15;23.67;;;4.80;;
51838;SDS011;37886;53.174;6.368;2023-01-06T01:33:41;19.33;;;4.72;;
51838;SDS011;37886;53.174;6.368;2023-01-06T01:36:08;16.85;;;3.90;;
51838;SDS011;37886;53.174;6.368;2023-01-06T01:38:35;21.52;;;5.30;;
51838;SDS011;37886;53.174;6.368;2023-01-06T01:41:01;19.52;;;5.20;;
51838;SDS011;37886;53.174;6.368;2023-01-06T01:43:46;17.35;;;5.13;;
51838;SDS011;37886;53.174;6.368;2023-01-06T01:46:17;23.00;;;6.15;;
51838;SDS011;37886;53.174;6.368;2023-01-06T01:48:55;16.48;;;6.22;;
51838;SDS011;37886;53.174;6.368;2023-01-06T01:51:35;14.60;;;6.30;;
51838;SDS011;37886;53.174;6.368;2023-01-06T01:54:04;13.70;;;6.35;;
51838;SDS011;37886;53.174;6.368;2023-01-06T01:56:35;20.55;;;6.57;;
51838;SDS011;37886;53.174;6.368;2023-01-06T01:59:16;19.48;;;7.20;;
51838;SDS011;37886;53.174;6.368;2023-01-06T02:01:45;19.92;;;7.13;;
51838;SDS011;37886;53.174;6.368;2023-01-06T02:04:12;19.67;;;7.35;;
51838;SDS011;37886;53.174;6.368;2023-01-06T02:06:40;19.48;;;7.20;;
51838;SDS011;37886;53.174;6.368;2023-01-06T02:09:18;18.33;;;6.78;;
51838;SDS011;37886;53.174;6.368;2023-01-06T02:12:01;19.52;;;6.53;;
51838;SDS011;37886;53.174;6.368;2023-01-06T02:14:27;17.77;;;6.88;;
51838;SDS011;37886;53.174;6.368;2023-01-06T02:17:00;17.23;;;6.90;;
51838;SDS011;37886;53.174;6.368;2023-01-06T02:19:49;21.63;;;6.43;;
51838;SDS011;37886;53.174;6.368;2023-01-06T02:39:52;15.38;;;5.65;;
51838;SDS011;37886;53.174;6.368;2023-01-06T02:42:41;17.00;;;5.55;;
51838;SDS011;37886;53.174;6.368;2023-01-06T02:50:22;12.18;;;5.05;;
51838;SDS011;37886;53.174;6.368;2023-01-06T02:53:02;15.13;;;4.60;;
51838;SDS011;37886;53.174;6.368;2023-01-06T02:55:34;12.13;;;4.65;;
51838;SDS011;37886;53.174;6.368;2023-01-06T02:58:05;14.35;;;4.70;;
51838;SDS011;37886;53.174;6.368;2023-01-06T03:00:41;17.00;;;4.70;;
51838;SDS011;37886;53.174;6.368;2023-01-06T03:03:11;15.27;;;4.47;;
51838;SDS011;37886;53.174;6.368;2023-01-06T03:05:40;13.30;;;4.05;;
51838;SDS011;37886;53.174;6.368;2023-01-06T03:08:11;11.70;;;3.97;;
51838;SDS011;37886;53.174;6.368;2023-01-06T03:10:40;21.67;;;5.03;;
51838;SDS011;37886;53.174;6.368;2023-01-06T03:15:38;11.30;;;4.13;;
51838;SDS011;37886;53.174;6.368;2023-01-06T03:18:03;13.90;;;4.68;;
51838;SDS011;37886;53.174;6.368;2023-01-06T03:20:29;10.80;;;4.43;;
51838;SDS011;37886;53.174;6.368;2023-01-06T03:22:55;15.68;;;5.07;;
51838;SDS011;37886;53.174;6.368;2023-01-06T03:25:21;13.88;;;5.07;;
51838;SDS011;37886;53.174;6.368;2023-01-06T03:27:47;12.73;;;5.10;;
51838;SDS011;37886;53.174;6.368;2023-01-06T03:30:13;13.20;;;5.43;;
51838;SDS011;37886;53.174;6.368;2023-01-06T03:32:43;16.35;;;5.05;;
51838;SDS011;37886;53.174;6.368;2023-01-06T03:35:46;8.30;;;4.63;;
51838;SDS011;37886;53.174;6.368;2023-01-06T03:46:27;11.40;;;4.82;;
51838;SDS011;37886;53.174;6.368;2023-01-06T03:49:21;10.25;;;5.18;;
51838;SDS011;37886;53.174;6.368;2023-01-06T03:54:53;10.45;;;5.90;;
51838;SDS011;37886;53.174;6.368;2023-01-06T03:57:24;9.30;;;5.63;;
51838;SDS011;37886;53.174;6.368;2023-01-06T03:59:54;10.30;;;6.38;;
51838;SDS011;37886;53.174;6.368;2023-01-06T04:02:24;16.33;;;6.70;;
51838;SDS011;37886;53.174;6.368;2023-01-06T04:05:02;10.35;;;7.32;;
51838;SDS011;37886;53.174;6.368;2023-01-06T04:07:38;10.65;;;8.00;;
51838;SDS011;37886;53.174;6.368;2023-01-06T04:10:05;12.90;;;9.27;;
51838;SDS011;37886;53.174;6.368;2023-01-06T04:12:32;13.73;;;9.20;;
51838;SDS011;37886;53.174;6.368;2023-01-06T04:17:30;13.57;;;10.30;;
51838;SDS011;37886;53.174;6.368;2023-01-06T04:19:55;13.25;;;9.88;;
51838;SDS011;37886;53.174;6.368;2023-01-06T04:22:21;16.35;;;9.15;;
51838;SDS011;37886;53.174;6.368;2023-01-06T04:24:47;13.15;;;8.15;;
51838;SDS011;37886;53.174;6.368;2023-01-06T04:27:12;14.70;;;8.73;;
51838;SDS011;37886;53.174;6.368;2023-01-06T04:29:38;11.32;;;7.65;;
51838;SDS011;37886;53.174;6.368;2023-01-06T04:32:04;13.35;;;6.70;;
51838;SDS011;37886;53.174;6.368;2023-01-06T04:34:30;11.93;;;7.22;;
51838;SDS011;37886;53.174;6.368;2023-01-06T04:36:55;9.88;;;6.13;;
51838;SDS011;37886;53.174;6.368;2023-01-06T04:39:21;10.30;;;6.00;;
51838;SDS011;37886;53.174;6.368;2023-01-06T04:41:47;8.20;;;5.03;;
51838;SDS011;37886;53.174;6.368;2023-01-06T04:44:12;8.45;;;5.22;;
51838;SDS011;37886;53.174;6.368;2023-01-06T04:46:38;7.32;;;5.03;;
51838;SDS011;37886;53.174;6.368;2023-01-06T04:49:04;12.65;;;5.63;;
51838;SDS011;37886;53.174;6.368;2023-01-06T04:51:29;8.80;;;4.57;;
51838;SDS011;37886;53.174;6.368;2023-01-06T04:53:55;7.70;;;4.28;;
51838;SDS011;37886;53.174;6.368;2023-01-06T04:56:21;9.55;;;4.30;;
51838;SDS011;37886;53.174;6.368;2023-01-06T04:58:46;8.95;;;4.22;;
51838;SDS011;37886;53.174;6.368;2023-01-06T05:01:12;6.80;;;4.20;;
51838;SDS011;37886;53.174;6.368;2023-01-06T05:03:39;11.23;;;4.43;;
51838;SDS011;37886;53.174;6.368;2023-01-06T05:06:07;7.45;;;4.05;;
51838;SDS011;37886;53.174;6.368;2023-01-06T05:08:34;8.38;;;3.72;;
51838;SDS011;37886;53.174;6.368;2023-01-06T05:11:02;6.75;;;4.00;;
51838;SDS011;37886;53.174;6.368;2023-01-06T05:13:48;7.05;;;4.45;;
51838;SDS011;37886;53.174;6.368;2023-01-06T05:16:15;6.88;;;4.05;;
51838;SDS011;37886;53.174;6.368;2023-01-06T05:18:44;6.47;;;3.70;;
51838;SDS011;37886;53.174;6.368;2023-01-06T05:21:10;9.35;;;4.15;;
51838;SDS011;37886;53.174;6.368;2023-01-06T05:23:37;8.38;;;4.05;;
51838;SDS011;37886;53.174;6.368;2023-01-06T05:26:04;9.35;;;3.80;;
51838;SDS011;37886;53.174;6.368;2023-01-06T05:28:30;9.15;;;4.53;;
51838;SDS011;37886;53.174;6.368;2023-01-06T05:31:00;8.77;;;3.95;;
51838;SDS011;37886;53.174;6.368;2023-01-06T05:33:26;7.97;;;4.93;;
51838;SDS011;37886;53.174;6.368;2023-01-06T05:35:59;8.60;;;4.32;;
51838;SDS011;37886;53.174;6.368;2023-01-06T05:38:27;7.15;;;4.45;;
51838;SDS011;37886;53.174;6.368;2023-01-06T05:40:53;13.00;;;5.30;;
51838;SDS011;37886;53.174;6.368;2023-01-06T05:43:20;9.43;;;5.55;;
51838;SDS011;37886;53.174;6.368;2023-01-06T05:45:46;13.43;;;6.55;;
51838;SDS011;37886;53.174;6.368;2023-01-06T05:48:12;10.00;;;6.68;;
51838;SDS011;37886;53.174;6.368;2023-01-06T05:50:37;14.50;;;8.27;;
51838;SDS011;37886;53.174;6.368;2023-01-06T05:53:03;13.35;;;8.40;;
51838;SDS011;37886;53.174;6.368;2023-01-06T05:55:29;13.95;;;10.38;;
51838;SDS011;37886;53.174;6.368;2023-01-06T05:57:54;14.98;;;11.43;;
51838;SDS011;37886;53.174;6.368;2023-01-06T06:00:20;17.05;;;12.13;;
51838;SDS011;37886;53.174;6.368;2023-01-06T06:02:46;19.45;;;13.50;;
51838;SDS011;37886;53.174;6.368;2023-01-06T06:05:11;21.73;;;14.38;;
51838;SDS011;37886;53.174;6.368;2023-01-06T06:07:37;19.35;;;15.52;;
51838;SDS011;37886;53.174;6.368;2023-01-06T06:10:03;21.48;;;15.77;;
51838;SDS011;37886;53.174;6.368;2023-01-06T06:12:29;19.35;;;15.55;;
51838;SDS011;37886;53.174;6.368;2023-01-06T06:14:55;17.00;;;14.98;;
51838;SDS011;37886;53.174;6.368;2023-01-06T06:17:21;17.25;;;14.35;;
51838;SDS011;37886;53.174;6.368;2023-01-06T06:19:47;23.05;;;15.23;;
51838;SDS011;37886;53.174;6.368;2023-01-06T06:22:12;16.80;;;14.95;;
51838;SDS011;37886;53.174;6.368;2023-01-06T06:24:39;19.10;;;14.32;;
51838;SDS011;37886;53.174;6.368;2023-01-06T06:27:04;16.42;;;14.68;;
51838;SDS011;37886;53.174;6.368;2023-01-06T06:29:30;18.38;;;13.80;;
51838;SDS011;37886;53.174;6.368;2023-01-06T06:31:56;16.17;;;13.13;;
51838;SDS011;37886;53.174;6.368;2023-01-06T06:34:21;20.27;;;13.80;;
51838;SDS011;37886;53.174;6.368;2023-01-06T06:36:47;15.02;;;12.13;;
51838;SDS011;37886;53.174;6.368;2023-01-06T06:39:13;15.65;;;13.18;;
51838;SDS011;37886;53.174;6.368;2023-01-06T06:41:38;20.80;;;13.85;;
51838;SDS011;37886;53.174;6.368;2023-01-06T06:44:04;18.58;;;13.15;;
51838;SDS011;37886;53.174;6.368;2023-01-06T06:46:30;21.70;;;13.23;;
51838;SDS011;37886;53.174;6.368;2023-01-06T06:48:55;20.55;;;14.15;;
51838;SDS011;37886;53.174;6.368;2023-01-06T06:51:21;16.10;;;13.38;;
51838;SDS011;37886;53.174;6.368;2023-01-06T06:53:48;17.33;;;12.70;;
51838;SDS011;37886;53.174;6.368;2023-01-06T06:56:15;15.35;;;12.05;;
51838;SDS011;37886;53.174;6.368;2023-01-06T06:58:41;12.82;;;10.20;;
51838;SDS011;37886;53.174;6.368;2023-01-06T07:01:08;10.50;;;9.38;;
51838;SDS011;37886;53.174;6.368;2023-01-06T07:03:36;12.55;;;8.18;;
51838;SDS011;37886;53.174;6.368;2023-01-06T07:06:02;12.50;;;8.75;;
51838;SDS011;37886;53.174;6.368;2023-01-06T07:08:30;12.20;;;7.97;;
51838;SDS011;37886;53.174;6.368;2023-01-06T07:10:57;9.40;;;8.43;;
51838;SDS011;37886;53.174;6.368;2023-01-06T07:13:23;12.05;;;7.50;;
51838;SDS011;37886;53.174;6.368;2023-01-06T07:15:48;6.93;;;6.28;;
51838;SDS011;37886;53.174;6.368;2023-01-06T07:18:14;8.43;;;7.18;;
51838;SDS011;37886;53.174;6.368;2023-01-06T07:20:44;9.50;;;6.88;;
51838;SDS011;37886;53.174;6.368;2023-01-06T07:23:11;7.82;;;5.40;;
51838;SDS011;37886;53.174;6.368;2023-01-06T07:25:37;5.85;;;4.45;;
51838;SDS011;37886;53.174;6.368;2023-01-06T07:28:02;5.95;;;4.78;;
51838;SDS011;37886;53.174;6.368;2023-01-06T07:30:29;6.00;;;4.95;;
51838;SDS011;37886;53.174;6.368;2023-01-06T07:32:55;5.70;;;4.07;;
51838;SDS011;37886;53.174;6.368;2023-01-06T07:35:21;11.75;;;3.13;;
51838;SDS011;37886;53.174;6.368;2023-01-06T07:37:47;8.32;;;3.92;;
51838;SDS011;37886;53.174;6.368;2023-01-06T07:40:12;7.50;;;3.53;;
51838;SDS011;37886;53.174;6.368;2023-01-06T07:42:38;10.07;;;3.15;;
51838;SDS011;37886;53.174;6.368;2023-01-06T07:45:04;9.25;;;2.80;;
51838;SDS011;37886;53.174;6.368;2023-01-06T07:47:31;7.72;;;2.63;;
51838;SDS011;37886;53.174;6.368;2023-01-06T07:49:57;11.10;;;2.40;;
51838;SDS011;37886;53.174;6.368;2023-01-06T07:52:23;9.90;;;2.33;;
51838;SDS011;37886;53.174;6.368;2023-01-06T07:54:49;6.88;;;1.77;;
51838;SDS011;37886;53.174;6.368;2023-01-06T07:57:14;11.15;;;1.77;;
51838;SDS011;37886;53.174;6.368;2023-01-06T07:59:40;7.95;;;1.88;;
51838;SDS011;37886;53.174;6.368;2023-01-06T08:02:06;12.82;;;1.50;;
51838;SDS011;37886;53.174;6.368;2023-01-06T08:04:35;8.35;;;1.60;;
51838;SDS011;37886;53.174;6.368;2023-01-06T08:07:01;8.15;;;1.70;;
51838;SDS011;37886;53.174;6.368;2023-01-06T08:09:26;12.38;;;1.63;;
51838;SDS011;37886;53.174;6.368;2023-01-06T08:11:52;10.10;;;1.70;;
51838;SDS011;37886;53.174;6.368;2023-01-06T08:14:18;6.30;;;1.52;;
51838;SDS011;37886;53.174;6.368;2023-01-06T08:16:45;4.70;;;1.10;;
51838;SDS011;37886;53.174;6.368;2023-01-06T08:19:12;7.60;;;1.40;;
51838;SDS011;37886;53.174;6.368;2023-01-06T08:21:37;11.40;;;1.70;;
51838;SDS011;37886;53.174;6.368;2023-01-06T08:24:03;6.05;;;1.33;;
51838;SDS011;37886;53.174;6.368;2023-01-06T08:26:29;12.23;;;2.08;;
51838;SDS011;37886;53.174;6.368;2023-01-06T08:28:55;7.68;;;1.45;;
51838;SDS011;37886;53.174;6.368;2023-01-06T08:31:21;7.00;;;1.65;;
51838;SDS011;37886;53.174;6.368;2023-01-06T08:33:48;6.15;;;1.40;;
51838;SDS011;37886;53.174;6.368;2023-01-06T08:36:16;6.63;;;1.38;;
51838;SDS011;37886;53.174;6.368;2023-01-06T08:38:43;9.02;;;1.98;;
51838;SDS011;37886;53.174;6.368;2023-01-06T08:41:09;8.00;;;1.88;;
51838;SDS011;37886;53.174;6.368;2023-01-06T08:43:36;11.02;;;2.13;;
51838;SDS011;37886;53.174;6.368;2023-01-06T08:46:03;13.07;;;1.75;;
51838;SDS011;37886;53.174;6.368;2023-01-06T08:48:31;10.02;;;1.73;;
51838;SDS011;37886;53.174;6.368;2023-01-06T08:51:00;12.13;;;1.92;;
51838;SDS011;37886;53.174;6.368;2023-01-06T08:53:28;16.02;;;2.10;;
51838;SDS011;37886;53.174;6.368;2023-01-06T08:55:53;9.05;;;2.33;;
51838;SDS011;37886;53.174;6.368;2023-01-06T08:58:19;17.30;;;1.80;;
51838;SDS011;37886;53.174;6.368;2023-01-06T09:00:45;11.65;;;1.60;;
51838;SDS011;37886;53.174;6.368;2023-01-06T09:03:10;14.07;;;2.75;;
51838;SDS011;37886;53.174;6.368;2023-01-06T09:05:36;16.90;;;2.53;;
51838;SDS011;37886;53.174;6.368;2023-01-06T09:08:02;15.38;;;2.42;;
51838;SDS011;37886;53.174;6.368;2023-01-06T09:10:28;20.17;;;2.63;;
51838;SDS011;37886;53.174;6.368;2023-01-06T09:12:54;17.27;;;2.67;;
51838;SDS011;37886;53.174;6.368;2023-01-06T09:15:19;17.27;;;3.10;;
51838;SDS011;37886;53.174;6.368;2023-01-06T09:17:45;16.38;;;2.88;;
51838;SDS011;37886;53.174;6.368;2023-01-06T09:20:11;19.58;;;2.47;;
51838;SDS011;37886;53.174;6.368;2023-01-06T09:22:36;18.23;;;2.80;;
51838;SDS011;37886;53.174;6.368;2023-01-06T09:25:02;22.55;;;2.83;;
51838;SDS011;37886;53.174;6.368;2023-01-06T09:27:31;20.75;;;3.03;;
51838;SDS011;37886;53.174;6.368;2023-01-06T09:29:57;26.25;;;2.67;;
51838;SDS011;37886;53.174;6.368;2023-01-06T09:32:22;17.25;;;2.88;;
51838;SDS011;37886;53.174;6.368;2023-01-06T09:34:48;16.00;;;3.00;;
51838;SDS011;37886;53.174;6.368;2023-01-06T09:37:14;19.98;;;2.97;;
51838;SDS011;37886;53.174;6.368;2023-01-06T09:39:42;26.20;;;2.75;;
51838;SDS011;37886;53.174;6.368;2023-01-06T09:42:23;22.08;;;2.72;;
51838;SDS011;37886;53.174;6.368;2023-01-06T09:45:16;13.38;;;2.30;;
51838;SDS011;37886;53.174;6.368;2023-01-06T09:50:52;25.30;;;2.55;;
51838;SDS011;37886;53.174;6.368;2023-01-06T09:55:57;17.85;;;2.90;;
51838;SDS011;37886;53.174;6.368;2023-01-06T10:01:10;14.13;;;2.38;;
51838;SDS011;37886;53.174;6.368;2023-01-06T10:04:37;26.27;;;2.45;;
51838;SDS011;37886;53.174;6.368;2023-01-06T10:07:10;19.60;;;2.80;;
51838;SDS011;37886;53.174;6.368;2023-01-06T10:12:54;7.25;;;1.90;;
51838;SDS011;37886;53.174;6.368;2023-01-06T10:29:50;19.33;;;3.92;;
51838;SDS011;37886;53.174;6.368;2023-01-06T10:32:18;17.95;;;2.53;;
51838;SDS011;37886;53.174;6.368;2023-01-06T10:34:45;13.07;;;2.38;;
51838;SDS011;37886;53.174;6.368;2023-01-06T10:40:22;14.52;;;2.47;;
51838;SDS011;37886;53.174;6.368;2023-01-06T10:42:50;15.00;;;2.78;;
51838;SDS011;37886;53.174;6.368;2023-01-06T10:45:37;17.67;;;2.83;;
51838;SDS011;37886;53.174;6.368;2023-01-06T10:48:12;10.10;;;1.63;;
51838;SDS011;37886;53.174;6.368;2023-01-06T10:50:42;15.25;;;3.03;;
51838;SDS011;37886;53.174;6.368;2023-01-06T10:53:11;16.50;;;2.35;;
51838;SDS011;37886;53.174;6.368;2023-01-06T10:55:54;13.60;;;2.92;;
51838;SDS011;37886;53.174;6.368;2023-01-06T11:01:30;16.05;;;2.60;;
51838;SDS011;37886;53.174;6.368;2023-01-06T11:04:08;21.65;;;2.53;;
51838;SDS011;37886;53.174;6.368;2023-01-06T11:06:39;18.23;;;2.35;;
51838;SDS011;37886;53.174;6.368;2023-01-06T11:09:23;17.40;;;2.47;;
51838;SDS011;37886;53.174;6.368;2023-01-06T11:11:49;16.77;;;2.78;;
51838;SDS011;37886;53.174;6.368;2023-01-06T11:14:17;15.65;;;2.88;;
51838;SDS011;37886;53.174;6.368;2023-01-06T11:17:18;12.32;;;2.20;;
51838;SDS011;37886;53.174;6.368;2023-01-06T11:19:41;12.32;;;3.03;;
51838;SDS011;37886;53.174;6.368;2023-01-06T11:25:01;14.38;;;2.85;;
51838;SDS011;37886;53.174;6.368;2023-01-06T11:27:28;15.00;;;2.97;;
51838;SDS011;37886;53.174;6.368;2023-01-06T11:29:54;15.95;;;3.10;;
51838;SDS011;37886;53.174;6.368;2023-01-06T11:32:26;18.27;;;3.22;;
51838;SDS011;37886;53.174;6.368;2023-01-06T11:34:54;14.43;;;2.67;;
51838;SDS011;37886;53.174;6.368;2023-01-06T11:37:38;13.95;;;2.75;;
51838;SDS011;37886;53.174;6.368;2023-01-06T11:43:06;17.55;;;2.80;;
51838;SDS011;37886;53.174;6.368;2023-01-06T11:45:43;17.70;;;2.35;;
51838;SDS011;37886;53.174;6.368;2023-01-06T11:48:42;12.27;;;2.38;;
51838;SDS011;37886;53.174;6.368;2023-01-06T11:51:13;15.82;;;2.70;;
51838;SDS011;37886;53.174;6.368;2023-01-06T11:53:39;16.00;;;2.72;;
51838;SDS011;37886;53.174;6.368;2023-01-06T11:56:18;17.70;;;2.65;;
51838;SDS011;37886;53.174;6.368;2023-01-06T11:59:01;13.68;;;2.92;;
51838;SDS011;37886;53.174;6.368;2023-01-06T12:06:58;13.20;;;2.90;;
51838;SDS011;37886;53.174;6.368;2023-01-06T12:09:37;15.80;;;2.92;;
51838;SDS011;37886;53.174;6.368;2023-01-06T12:12:25;15.50;;;3.00;;
51838;SDS011;37886;53.174;6.368;2023-01-06T12:14:52;16.40;;;2.55;;
51838;SDS011;37886;53.174;6.368;2023-01-06T12:22:32;15.63;;;2.45;;
51838;SDS011;37886;53.174;6.368;2023-01-06T12:25:02;17.70;;;2.97;;
51838;SDS011;37886;53.174;6.368;2023-01-06T12:27:34;13.52;;;2.53;;
51838;SDS011;37886;53.174;6.368;2023-01-06T12:30:07;18.98;;;3.00;;
51838;SDS011;37886;53.174;6.368;2023-01-06T12:32:46;20.15;;;3.03;;
51838;SDS011;37886;53.174;6.368;2023-01-06T12:35:17;17.58;;;3.08;;
51838;SDS011;37886;53.174;6.368;2023-01-06T12:37:58;16.92;;;2.80;;
51838;SDS011;37886;53.174;6.368;2023-01-06T12:40:50;17.08;;;2.97;;
51838;SDS011;37886;53.174;6.368;2023-01-06T12:43:21;20.23;;;2.67;;
51838;SDS011;37886;53.174;6.368;2023-01-06T12:45:55;15.13;;;2.67;;
51838;SDS011;37886;53.174;6.368;2023-01-06T12:48:36;16.30;;;2.92;;
51838;SDS011;37886;53.174;6.368;2023-01-06T12:51:11;19.80;;;3.08;;
51838;SDS011;37886;53.174;6.368;2023-01-06T12:53:43;16.23;;;2.78;;
51838;SDS011;37886;53.174;6.368;2023-01-06T12:59:11;16.48;;;3.03;;
51838;SDS011;37886;53.174;6.368;2023-01-06T13:02:19;22.20;;;3.55;;
51838;SDS011;37886;53.174;6.368;2023-01-06T13:13:47;13.25;;;2.55;;
51838;SDS011;37886;53.174;6.368;2023-01-06T13:21:49;16.02;;;2.70;;
51838;SDS011;37886;53.174;6.368;2023-01-06T13:27:10;18.25;;;3.30;;
51838;SDS011;37886;53.174;6.368;2023-01-06T13:41:12;11.10;;;2.60;;
51838;SDS011;37886;53.174;6.368;2023-01-06T13:43:40;18.80;;;2.53;;
51838;SDS011;37886;53.174;6.368;2023-01-06T13:46:10;16.98;;;2.88;;
51838;SDS011;37886;53.174;6.368;2023-01-06T13:48:40;14.55;;;2.40;;
51838;SDS011;37886;53.174;6.368;2023-01-06T13:53:40;19.83;;;2.97;;
51838;SDS011;37886;53.174;6.368;2023-01-06T13:58:38;13.25;;;2.65;;
51838;SDS011;37886;53.174;6.368;2023-01-06T14:03:30;15.52;;;3.28;;
51838;SDS011;37886;53.174;6.368;2023-01-06T14:05:57;17.70;;;2.65;;
51838;SDS011;37886;53.174;6.368;2023-01-06T14:08:26;19.27;;;3.30;;
51838;SDS011;37886;53.174;6.368;2023-01-06T14:11:43;12.25;;;2.60;;
51838;SDS011;37886;53.174;6.368;2023-01-06T14:16:52;17.65;;;2.90;;
51838;SDS011;37886;53.174;6.368;2023-01-06T14:19:23;13.73;;;2.95;;
51838;SDS011;37886;53.174;6.368;2023-01-06T14:21:54;19.65;;;2.47;;
51838;SDS011;37886;53.174;6.368;2023-01-06T14:24:37;13.65;;;2.50;;
51838;SDS011;37886;53.174;6.368;2023-01-06T14:27:09;16.05;;;2.75;;
51838;SDS011;37886;53.174;6.368;2023-01-06T14:34:40;20.63;;;2.97;;
51838;SDS011;37886;53.174;6.368;2023-01-06T14:37:28;17.65;;;2.97;;
51838;SDS011;37886;53.174;6.368;2023-01-06T14:40:02;15.32;;;3.25;;
51838;SDS011;37886;53.174;6.368;2023-01-06T14:42:35;14.50;;;2.53;;
51838;SDS011;37886;53.174;6.368;2023-01-06T14:45:06;15.23;;;3.28;;
51838;SDS011;37886;53.174;6.368;2023-01-06T14:47:43;15.50;;;3.00;;
51838;SDS011;37886;53.174;6.368;2023-01-06T14:50:19;14.10;;;2.75;;
51838;SDS011;37886;53.174;6.368;2023-01-06T14:53:01;22.83;;;3.03;;
51838;SDS011;37886;53.174;6.368;2023-01-06T14:55:30;20.10;;;2.58;;
51838;SDS011;37886;53.174;6.368;2023-01-06T14:57:59;18.25;;;2.85;;
51838;SDS011;37886;53.174;6.368;2023-01-06T15:00:26;13.00;;;2.90;;
51838;SDS011;37886;53.174;6.368;2023-01-06T15:05:28;18.42;;;3.00;;
51838;SDS011;37886;53.174;6.368;2023-01-06T15:10:35;23.33;;;2.92;;
51838;SDS011;37886;53.174;6.368;2023-01-06T15:13:03;18.70;;;2.72;;
51838;SDS011;37886;53.174;6.368;2023-01-06T15:15:45;24.52;;;3.40;;
51838;SDS011;37886;53.174;6.368;2023-01-06T15:18:32;22.50;;;2.90;;
51838;SDS011;37886;53.174;6.368;2023-01-06T15:21:02;25.95;;;3.72;;
51838;SDS011;37886;53.174;6.368;2023-01-06T15:23:28;18.67;;;3.13;;
51838;SDS011;37886;53.174;6.368;2023-01-06T15:25:54;26.40;;;3.13;;
51838;SDS011;37886;53.174;6.368;2023-01-06T15:28:27;12.48;;;2.75;;
51838;SDS011;37886;53.174;6.368;2023-01-06T15:30:55;21.88;;;3.42;;
51838;SDS011;37886;53.174;6.368;2023-01-06T15:33:22;18.67;;;2.97;;
51838;SDS011;37886;53.174;6.368;2023-01-06T15:35:50;22.00;;;4.35;;
51838;SDS011;37886;53.174;6.368;2023-01-06T15:40:56;19.93;;;4.67;;
51838;SDS011;37886;53.174;6.368;2023-01-06T15:43:24;20.33;;;3.00;;
51838;SDS011;37886;53.174;6.368;2023-01-06T15:45:58;19.45;;;3.58;;
51838;SDS011;37886;53.174;6.368;2023-01-06T15:48:27;22.10;;;3.83;;
51838;SDS011;37886;53.174;6.368;2023-01-06T15:50:55;19.02;;;3.40;;
51838;SDS011;37886;53.174;6.368;2023-01-06T15:53:23;21.85;;;3.30;;
51838;SDS011;37886;53.174;6.368;2023-01-06T15:55:52;21.73;;;3.72;;
51838;SDS011;37886;53.174;6.368;2023-01-06T15:58:29;23.20;;;4.23;;
51838;SDS011;37886;53.174;6.368;2023-01-06T16:01:01;16.50;;;3.97;;
51838;SDS011;37886;53.174;6.368;2023-01-06T16:03:35;20.20;;;3.22;;
51838;SDS011;37886;53.174;6.368;2023-01-06T16:06:07;21.10;;;3.88;;
51838;SDS011;37886;53.174;6.368;2023-01-06T16:08:33;25.77;;;3.70;;
51838;SDS011;37886;53.174;6.368;2023-01-06T16:13:39;19.38;;;3.40;;
51838;SDS011;37886;53.174;6.368;2023-01-06T16:16:26;19.50;;;3.53;;
51838;SDS011;37886;53.174;6.368;2023-01-06T16:19:06;23.48;;;3.40;;
51838;SDS011;37886;53.174;6.368;2023-01-06T16:21:37;18.70;;;3.17;;
51838;SDS011;37886;53.174;6.368;2023-01-06T16:24:04;21.92;;;3.33;;
51838;SDS011;37886;53.174;6.368;2023-01-06T16:26:40;21.38;;;3.00;;
51838;SDS011;37886;53.174;6.368;2023-01-06T16:29:25;25.17;;;3.28;;
51838;SDS011;37886;53.174;6.368;2023-01-06T16:32:16;10.45;;;3.10;;
51838;SDS011;37886;53.174;6.368;2023-01-06T16:34:54;24.35;;;4.15;;
51838;SDS011;37886;53.174;6.368;2023-01-06T16:37:25;16.10;;;3.55;;
51838;SDS011;37886;53.174;6.368;2023-01-06T16:39:57;28.17;;;3.70;;
51838;SDS011;37886;53.174;6.368;2023-01-06T16:42:28;19.83;;;3.83;;
51838;SDS011;37886;53.174;6.368;2023-01-06T16:45:09;19.45;;;3.70;;
51838;SDS011;37886;53.174;6.368;2023-01-06T16:47:54;17.23;;;3.13;;
51838;SDS011;37886;53.174;6.368;2023-01-06T16:50:37;28.70;;;4.03;;
51838;SDS011;37886;53.174;6.368;2023-01-06T16:53:10;21.58;;;3.30;;
51838;SDS011;37886;53.174;6.368;2023-01-06T16:55:39;20.05;;;3.00;;
51838;SDS011;37886;53.174;6.368;2023-01-06T16:58:16;20.02;;;3.20;;
51838;SDS011;37886;53.174;6.368;2023-01-06T17:00:43;19.98;;;4.32;;
51838;SDS011;37886;53.174;6.368;2023-01-06T17:03:16;22.02;;;4.40;;
51838;SDS011;37886;53.174;6.368;2023-01-06T17:05:45;18.20;;;4.00;;
51838;SDS011;37886;53.174;6.368;2023-01-06T17:08:15;25.48;;;4.30;;
51838;SDS011;37886;53.174;6.368;2023-01-06T17:10:43;18.88;;;4.30;;
51838;SDS011;37886;53.174;6.368;2023-01-06T17:13:12;22.60;;;4.25;;
51838;SDS011;37886;53.174;6.368;2023-01-06T17:15:58;16.95;;;3.40;;
51838;SDS011;37886;53.174;6.368;2023-01-06T17:18:56;19.52;;;4.18;;